sensor_id;sensor_type;location;lat;lon;timestamp;pressure;altitude;pressure_sealevel;temperature;humidity
70133;BME280;57495;49.922;7.966;2023-05-12T00:01:37;99730.75;;;12.36;100.00
70133;BME280;57495;49.922;7.966;2023-05-12T00:03:38;99732.63;;;12.44;100.00
70133;BME280;57495;49.922;7.966;2023-05-12T00:05:40;99727.78;;;12.48;100.00
70133;BME280;57495;49.922;7.966;2023-05-12T00:07:42;99726.44;;;12.44;100.00
70133;BME280;57495;49.922;7.966;2023-05-12T00:09:44;99724.41;;;12.46;100.00
70133;BME280;57495;49.922;7.966;2023-05-12T00:11:45;99724.00;;;12.32;100.00
70133;BME280;57495;49.922;7.966;2023-05-12T00:13:47;99724.88;;;12.41;100.00
70133;BME280;57495;49.922;7.966;2023-05-12T00:15:49;99717.88;;;12.40;100.00
70133;BME280;57495;49.922;7.966;2023-05-12T00:17:51;99715.19;;;12.40;100.00
70133;BME280;57495;49.922;7.966;2023-05-12T00:19:53;99727.50;;;12.25;100.00
70133;BME280;57495;49.922;7.966;2023-05-12T00:21:54;99722.47;;;12.22;100.00
70133;BME280;57495;49.922;7.966;2023-05-12T00:23:57;99720.47;;;12.24;100.00
70133;BME280;57495;49.922;7.966;2023-05-12T00:25:58;99715.81;;;12.34;100.00
70133;BME280;57495;49.922;7.966;2023-05-12T00:28:00;99715.97;;;12.32;100.00
70133;BME280;57495;49.922;7.966;2023-05-12T00:30:01;99711.63;;;12.31;100.00
70133;BME280;57495;49.922;7.966;2023-05-12T00:32:03;99711.78;;;12.38;100.00
70133;BME280;57495;49.922;7.966;2023-05-12T00:34:05;99712.44;;;12.32;100.00
70133;BME280;57495;49.922;7.966;2023-05-12T00:36:07;99707.03;;;12.15;100.00
70133;BME280;57495;49.922;7.966;2023-05-12T00:38:08;99703.66;;;12.13;100.00
70133;BME280;57495;49.922;7.966;2023-05-12T00:40:11;99715.47;;;11.94;100.00
70133;BME280;57495;49.922;7.966;2023-05-12T00:42:13;99710.28;;;12.01;100.00
70133;BME280;57495;49.922;7.966;2023-05-12T00:44:14;99706.50;;;12.12;100.00
70133;BME280;57495;49.922;7.966;2023-05-12T00:46:17;99707.38;;;12.12;100.00
70133;BME280;57495;49.922;7.966;2023-05-12T00:48:19;99703.00;;;12.19;100.00
70133;BME280;57495;49.922;7.966;2023-05-12T00:50:20;99700.00;;;12.14;100.00
70133;BME280;57495;49.922;7.966;2023-05-12T00:52:22;99705.66;;;12.03;100.00
70133;BME280;57495;49.922;7.966;2023-05-12T00:54:24;99711.56;;;12.15;100.00
70133;BME280;57495;49.922;7.966;2023-05-12T00:56:26;99701.34;;;12.18;100.00
70133;BME280;57495;49.922;7.966;2023-05-12T00:58:28;99708.38;;;12.19;100.00
70133;BME280;57495;49.922;7.966;2023-05-12T01:00:31;99705.38;;;12.23;100.00
70133;BME280;57495;49.922;7.966;2023-05-12T01:02:32;99706.72;;;12.18;100.00
70133;BME280;57495;49.922;7.966;2023-05-12T01:04:36;99708.72;;;12.25;100.00
70133;BME280;57495;49.922;7.966;2023-05-12T01:06:42;99710.09;;;12.29;100.00
70133;BME280;57495;49.922;7.966;2023-05-12T01:08:46;99711.09;;;12.28;100.00
70133;BME280;57495;49.922;7.966;2023-05-12T01:10:47;99706.06;;;12.25;100.00
70133;BME280;57495;49.922;7.966;2023-05-12T01:12:50;99703.38;;;12.25;100.00
70133;BME280;57495;49.922;7.966;2023-05-12T01:14:53;99702.69;;;12.14;100.00
70133;BME280;57495;49.922;7.966;2023-05-12T01:16:57;99696.97;;;12.17;100.00
70133;BME280;57495;49.922;7.966;2023-05-12T01:19:02;99700.97;;;12.13;100.00
70133;BME280;57495;49.922;7.966;2023-05-12T01:21:05;99699.34;;;12.21;100.00
70133;BME280;57495;49.922;7.966;2023-05-12T01:23:08;99699.34;;;12.21;100.00
70133;BME280;57495;49.922;7.966;2023-05-12T01:25:10;99701.34;;;12.18;100.00
70133;BME280;57495;49.922;7.966;2023-05-12T01:27:15;99694.81;;;12.21;100.00
70133;BME280;57495;49.922;7.966;2023-05-12T01:29:18;99698.31;;;12.13;100.00
70133;BME280;57495;49.922;7.966;2023-05-12T01:31:20;99700.66;;;12.16;100.00
70133;BME280;57495;49.922;7.966;2023-05-12T01:33:22;99699.66;;;12.17;100.00
70133;BME280;57495;49.922;7.966;2023-05-12T01:35:23;99698.81;;;12.17;100.00
70133;BME280;57495;49.922;7.966;2023-05-12T01:37:25;99704.50;;;12.14;100.00
70133;BME280;57495;49.922;7.966;2023-05-12T01:39:26;99699.47;;;12.11;100.00
70133;BME280;57495;49.922;7.966;2023-05-12T01:41:28;99704.84;;;12.11;100.00
70133;BME280;57495;49.922;7.966;2023-05-12T01:43:31;99696.63;;;12.12;100.00
70133;BME280;57495;49.922;7.966;2023-05-12T01:45:32;99700.31;;;12.11;100.00
70133;BME280;57495;49.922;7.966;2023-05-12T01:47:34;99703.66;;;12.13;100.00
70133;BME280;57495;49.922;7.966;2023-05-12T01:49:35;99700.81;;;12.15;100.00
70133;BME280;57495;49.922;7.966;2023-05-12T01:51:36;99698.31;;;12.13;100.00
70133;BME280;57495;49.922;7.966;2023-05-12T01:53:38;99703.97;;;12.10;100.00
70133;BME280;57495;49.922;7.966;2023-05-12T01:55:39;99703.63;;;12.05;100.00
70133;BME280;57495;49.922;7.966;2023-05-12T01:57:41;99709.34;;;12.10;100.00
70133;BME280;57495;49.922;7.966;2023-05-12T01:59:43;99705.81;;;12.10;100.00
70133;BME280;57495;49.922;7.966;2023-05-12T02:01:45;99701.13;;;12.12;100.00
70133;BME280;57495;49.922;7.966;2023-05-12T02:03:46;99701.66;;;12.15;100.00
70133;BME280;57495;49.922;7.966;2023-05-12T02:05:48;99703.66;;;12.13;100.00
70133;BME280;57495;49.922;7.966;2023-05-12T02:07:49;99701.66;;;12.15;100.00
70133;BME280;57495;49.922;7.966;2023-05-12T02:09:50;99700.97;;;12.13;100.00
70133;BME280;57495;49.922;7.966;2023-05-12T02:11:52;99703.97;;;12.10;100.00
70133;BME280;57495;49.922;7.966;2023-05-12T02:13:53;99699.47;;;12.11;100.00
70133;BME280;57495;49.922;7.966;2023-05-12T02:15:56;99705.66;;;12.11;100.00
70133;BME280;57495;49.922;7.966;2023-05-12T02:17:58;99704.84;;;12.11;100.00
70133;BME280;57495;49.922;7.966;2023-05-12T02:19:59;99705.31;;;12.06;100.00
70133;BME280;57495;49.922;7.966;2023-05-12T02:22:00;99701.28;;;11.76;100.00
70133;BME280;57495;49.922;7.966;2023-05-12T02:24:02;99702.47;;;11.82;100.00
70133;BME280;57495;49.922;7.966;2023-05-12T02:26:04;99702.22;;;11.93;100.00
70133;BME280;57495;49.922;7.966;2023-05-12T02:28:05;99696.88;;;11.93;100.00
70133;BME280;57495;49.922;7.966;2023-05-12T02:30:10;99705.66;;;12.03;100.00
70133;BME280;57495;49.922;7.966;2023-05-12T02:32:13;99701.78;;;12.06;100.00
70133;BME280;57495;49.922;7.966;2023-05-12T02:34:14;99705.66;;;12.03;100.00
70133;BME280;57495;49.922;7.966;2023-05-12T02:36:15;99700.97;;;12.05;100.00
70133;BME280;57495;49.922;7.966;2023-05-12T02:38:17;99702.97;;;12.03;100.00
70133;BME280;57495;49.922;7.966;2023-05-12T02:40:18;99702.09;;;12.03;100.00
70133;BME280;57495;49.922;7.966;2023-05-12T02:42:20;99697.59;;;12.03;100.00
70133;BME280;57495;49.922;7.966;2023-05-12T02:44:21;99694.22;;;12.01;100.00
70133;BME280;57495;49.922;7.966;2023-05-12T02:46:23;99698.91;;;11.99;100.00
70133;BME280;57495;49.922;7.966;2023-05-12T02:48:25;99697.53;;;11.95;100.00
70133;BME280;57495;49.922;7.966;2023-05-12T02:50:27;99697.25;;;11.98;100.00
70133;BME280;57495;49.922;7.966;2023-05-12T02:52:28;99696.41;;;11.97;100.00
70133;BME280;57495;49.922;7.966;2023-05-12T02:54:30;99694.22;;;12.01;100.00
70133;BME280;57495;49.922;7.966;2023-05-12T02:56:31;99692.25;;;12.03;100.00
70133;BME280;57495;49.922;7.966;2023-05-12T02:58:32;99700.06;;;11.96;100.00
70133;BME280;57495;49.922;7.966;2023-05-12T03:00:34;99694.56;;;11.98;100.00
70133;BME280;57495;49.922;7.966;2023-05-12T03:02:36;99693.19;;;11.94;100.00
70133;BME280;57495;49.922;7.966;2023-05-12T03:04:39;99696.88;;;11.93;100.00
70133;BME280;57495;49.922;7.966;2023-05-12T03:06:41;99703.81;;;11.86;100.00
70133;BME280;57495;49.922;7.966;2023-05-12T03:08:42;99699.50;;;11.85;100.00
70133;BME280;57495;49.922;7.966;2023-05-12T03:10:44;99698.47;;;11.86;100.00
70133;BME280;57495;49.922;7.966;2023-05-12T03:12:45;99696.63;;;11.86;100.00
70133;BME280;57495;49.922;7.966;2023-05-12T03:14:46;99702.38;;;11.91;100.00
70133;BME280;57495;49.922;7.966;2023-05-12T03:16:48;99700.00;;;11.88;100.00
70133;BME280;57495;49.922;7.966;2023-05-12T03:18:49;99695.16;;;11.92;100.00
70133;BME280;57495;49.922;7.966;2023-05-12T03:20:52;99695.47;;;11.89;100.00
70133;BME280;57495;49.922;7.966;2023-05-12T03:22:53;99702.22;;;11.93;100.00
70133;BME280;57495;49.922;7.966;2023-05-12T03:24:55;99697.19;;;11.90;100.00
70133;BME280;57495;49.922;7.966;2023-05-12T03:26:56;99697.84;;;11.92;100.00
70133;BME280;57495;49.922;7.966;2023-05-12T03:28:58;99702.53;;;11.90;100.00
70133;BME280;57495;49.922;7.966;2023-05-12T03:30:59;99701.81;;;11.88;100.00
70133;BME280;57495;49.922;7.966;2023-05-12T03:33:00;99702.84;;;11.87;100.00
70133;BME280;57495;49.922;7.966;2023-05-12T03:35:02;99699.91;;;11.72;100.00
70133;BME280;57495;49.922;7.966;2023-05-12T03:37:05;99700.31;;;11.85;100.00
70133;BME280;57495;49.922;7.966;2023-05-12T03:39:06;99707.75;;;11.91;100.00
70133;BME280;57495;49.922;7.966;2023-05-12T03:41:08;99713.94;;;11.92;100.00
70133;BME280;57495;49.922;7.966;2023-05-12T03:43:10;99714.25;;;11.89;100.00
70133;BME280;57495;49.922;7.966;2023-05-12T03:45:11;99709.84;;;11.79;100.00
70133;BME280;57495;49.922;7.966;2023-05-12T03:47:12;99713.91;;;11.66;100.00
70133;BME280;57495;49.922;7.966;2023-05-12T03:49:14;99717.50;;;11.48;100.00
70133;BME280;57495;49.922;7.966;2023-05-12T03:51:15;99717.78;;;11.45;100.00
70133;BME280;57495;49.922;7.966;2023-05-12T03:53:18;99710.50;;;11.29;100.00
70133;BME280;57495;49.922;7.966;2023-05-12T03:55:19;99709.31;;;11.50;100.00
70133;BME280;57495;49.922;7.966;2023-05-12T03:57:21;99722.28;;;11.63;100.00
70133;BME280;57495;49.922;7.966;2023-05-12T03:59:22;99713.84;;;11.75;100.00
70133;BME280;57495;49.922;7.966;2023-05-12T04:01:24;99716.78;;;11.64;100.00
70133;BME280;57495;49.922;7.966;2023-05-12T04:03:25;99716.13;;;11.70;100.00
70133;BME280;57495;49.922;7.966;2023-05-12T04:05:26;99714.19;;;11.80;100.00
70133;BME280;57495;49.922;7.966;2023-05-12T04:07:28;99713.56;;;11.87;100.00
70133;BME280;57495;49.922;7.966;2023-05-12T04:09:31;99724.66;;;11.92;100.00
70133;BME280;57495;49.922;7.966;2023-05-12T04:11:33;99716.81;;;11.98;100.00
70133;BME280;57495;49.922;7.966;2023-05-12T04:13:34;99718.19;;;12.03;100.00
70133;BME280;57495;49.922;7.966;2023-05-12T04:15:36;99719.03;;;12.03;100.00
70133;BME280;57495;49.922;7.966;2023-05-12T04:17:37;99720.56;;;12.06;100.00
70133;BME280;57495;49.922;7.966;2023-05-12T04:19:38;99723.22;;;12.06;100.00
70133;BME280;57495;49.922;7.966;2023-05-12T04:21:40;99727.75;;;12.05;100.00
70133;BME280;57495;49.922;7.966;2023-05-12T04:23:41;99725.75;;;12.07;100.00
70133;BME280;57495;49.922;7.966;2023-05-12T04:25:44;99728.44;;;12.07;100.00
70133;BME280;57495;49.922;7.966;2023-05-12T04:27:46;99722.91;;;12.09;100.00
70133;BME280;57495;49.922;7.966;2023-05-12T04:29:47;99728.47;;;12.15;100.00
70133;BME280;57495;49.922;7.966;2023-05-12T04:31:48;99726.47;;;12.17;100.00
70133;BME280;57495;49.922;7.966;2023-05-12T04:33:50;99726.81;;;12.14;100.00
70133;BME280;57495;49.922;7.966;2023-05-12T04:35:54;99728.16;;;12.18;100.00
70133;BME280;57495;49.922;7.966;2023-05-12T04:37:55;99723.63;;;12.19;100.00
70133;BME280;57495;49.922;7.966;2023-05-12T04:39:57;99727.84;;;12.22;100.00
70133;BME280;57495;49.922;7.966;2023-05-12T04:42:00;99727.84;;;12.22;100.00
70133;BME280;57495;49.922;7.966;2023-05-12T04:44:02;99732.88;;;12.25;100.00
70133;BME280;57495;49.922;7.966;2023-05-12T04:46:03;99737.25;;;12.26;100.00
70133;BME280;57495;49.922;7.966;2023-05-12T04:48:05;99737.41;;;12.24;100.00
70133;BME280;57495;49.922;7.966;2023-05-12T04:50:07;99738.38;;;12.23;100.00
70133;BME280;57495;49.922;7.966;2023-05-12T04:52:09;99737.09;;;12.27;100.00
70133;BME280;57495;49.922;7.966;2023-05-12T04:54:11;99739.56;;;12.29;100.00
70133;BME280;57495;49.922;7.966;2023-05-12T04:56:12;99752.00;;;12.30;100.00
70133;BME280;57495;49.922;7.966;2023-05-12T04:58:15;99742.09;;;12.30;100.00
70133;BME280;57495;49.922;7.966;2023-05-12T05:00:17;99749.16;;;12.31;100.00
70133;BME280;57495;49.922;7.966;2023-05-12T05:02:18;99753.47;;;12.24;100.00
70133;BME280;57495;49.922;7.966;2023-05-12T05:04:20;99745.28;;;12.26;100.00
70133;BME280;57495;49.922;7.966;2023-05-12T05:06:21;99755.34;;;12.32;100.00
70133;BME280;57495;49.922;7.966;2023-05-12T05:08:23;99754.69;;;12.30;100.00
70133;BME280;57495;49.922;7.966;2023-05-12T05:10:24;99749.47;;;12.28;100.00
70133;BME280;57495;49.922;7.966;2023-05-12T05:12:26;99751.69;;;12.33;100.00
70133;BME280;57495;49.922;7.966;2023-05-12T05:14:28;99747.84;;;12.35;100.00
70133;BME280;57495;49.922;7.966;2023-05-12T05:16:30;99753.03;;;12.37;100.00
70133;BME280;57495;49.922;7.966;2023-05-12T05:18:31;99750.19;;;12.38;100.00
70133;BME280;57495;49.922;7.966;2023-05-12T05:20:33;99758.91;;;12.41;100.00
70133;BME280;57495;49.922;7.966;2023-05-12T05:22:35;99754.69;;;12.30;100.00
70133;BME280;57495;49.922;7.966;2023-05-12T05:24:38;99755.84;;;12.27;100.00
70133;BME280;57495;49.922;7.966;2023-05-12T05:26:40;99764.06;;;12.34;100.00
70133;BME280;57495;49.922;7.966;2023-05-12T05:28:41;99758.41;;;12.37;100.00
70133;BME280;57495;49.922;7.966;2023-05-12T05:30:44;99766.13;;;12.40;100.00
70133;BME280;57495;49.922;7.966;2023-05-12T05:32:45;99766.66;;;12.44;100.00
70133;BME280;57495;49.922;7.966;2023-05-12T05:34:47;99764.13;;;12.42;100.00
70133;BME280;57495;49.922;7.966;2023-05-12T05:36:48;99768.84;;;12.48;100.00
70133;BME280;57495;49.922;7.966;2023-05-12T05:38:50;99763.84;;;12.53;100.00
70133;BME280;57495;49.922;7.966;2023-05-12T05:40:51;99770.34;;;12.51;100.00
70133;BME280;57495;49.922;7.966;2023-05-12T05:42:52;99774.03;;;12.50;100.00
70133;BME280;57495;49.922;7.966;2023-05-12T05:44:54;99772.88;;;12.52;100.00
70133;BME280;57495;49.922;7.966;2023-05-12T05:46:56;99773.69;;;12.53;100.00
70133;BME280;57495;49.922;7.966;2023-05-12T05:48:58;99777.25;;;12.53;100.00
70133;BME280;57495;49.922;7.966;2023-05-12T05:50:59;99772.25;;;12.59;100.00
70133;BME280;57495;49.922;7.966;2023-05-12T05:53:01;99773.88;;;12.51;100.00
70133;BME280;57495;49.922;7.966;2023-05-12T05:55:03;99779.94;;;12.53;100.00
70133;BME280;57495;49.922;7.966;2023-05-12T05:57:05;99779.06;;;12.53;100.00
70133;BME280;57495;49.922;7.966;2023-05-12T05:59:06;99783.94;;;12.49;100.00
70133;BME280;57495;49.922;7.966;2023-05-12T06:01:08;99786.25;;;12.44;100.00
70133;BME280;57495;49.922;7.966;2023-05-12T06:03:11;99782.56;;;12.45;100.00
70133;BME280;57495;49.922;7.966;2023-05-12T06:05:13;99783.94;;;12.49;100.00
70133;BME280;57495;49.922;7.966;2023-05-12T06:07:14;99786.44;;;12.51;100.00
70133;BME280;57495;49.922;7.966;2023-05-12T06:09:16;99790.81;;;12.52;100.00
70133;BME280;57495;49.922;7.966;2023-05-12T06:11:17;99796.34;;;12.50;100.00
70133;BME280;57495;49.922;7.966;2023-05-12T06:13:18;99791.19;;;12.57;100.00
70133;BME280;57495;49.922;7.966;2023-05-12T06:15:20;99799.09;;;12.67;100.00
70133;BME280;57495;49.922;7.966;2023-05-12T06:17:21;99789.69;;;12.63;100.00
70133;BME280;57495;49.922;7.966;2023-05-12T06:19:24;99795.06;;;12.63;100.00
70133;BME280;57495;49.922;7.966;2023-05-12T06:21:26;99797.25;;;12.67;100.00
70133;BME280;57495;49.922;7.966;2023-05-12T06:23:27;99805.13;;;12.69;100.00
70133;BME280;57495;49.922;7.966;2023-05-12T06:25:28;99806.97;;;12.68;100.00
70133;BME280;57495;49.922;7.966;2023-05-12T06:27:32;99804.84;;;12.80;100.00
70133;BME280;57495;49.922;7.966;2023-05-12T06:29:33;99805.66;;;12.81;100.00
70133;BME280;57495;49.922;7.966;2023-05-12T06:31:35;99808.22;;;12.90;100.00
70133;BME280;57495;49.922;7.966;2023-05-12T06:33:36;99816.66;;;12.95;100.00
70133;BME280;57495;49.922;7.966;2023-05-12T06:35:39;99805.38;;;12.92;100.00
70133;BME280;57495;49.922;7.966;2023-05-12T06:37:40;99813.91;;;12.87;100.00
70133;BME280;57495;49.922;7.966;2023-05-12T06:39:43;99813.75;;;12.89;100.00
70133;BME280;57495;49.922;7.966;2023-05-12T06:41:45;99812.28;;;13.03;100.00
70133;BME280;57495;49.922;7.966;2023-05-12T06:43:46;99818.34;;;13.13;100.00
70133;BME280;57495;49.922;7.966;2023-05-12T06:45:48;99817.84;;;13.09;100.00
70133;BME280;57495;49.922;7.966;2023-05-12T06:47:49;99819.84;;;13.07;100.00
70133;BME280;57495;49.922;7.966;2023-05-12T06:49:51;99815.66;;;13.05;100.00
70133;BME280;57495;49.922;7.966;2023-05-12T06:51:54;99822.03;;;13.12;100.00
70133;BME280;57495;49.922;7.966;2023-05-12T06:53:55;99820.69;;;13.08;100.00
70133;BME280;57495;49.922;7.966;2023-05-12T06:55:56;99819.34;;;13.04;100.00
70133;BME280;57495;49.922;7.966;2023-05-12T06:57:58;99826.88;;;13.08;100.00
70133;BME280;57495;49.922;7.966;2023-05-12T06:59:59;99826.56;;;13.03;100.00
70133;BME280;57495;49.922;7.966;2023-05-12T07:02:02;99823.06;;;13.19;100.00
70133;BME280;57495;49.922;7.966;2023-05-12T07:04:03;99838.72;;;13.32;100.00
70133;BME280;57495;49.922;7.966;2023-05-12T07:06:05;99828.50;;;13.36;100.00
70133;BME280;57495;49.922;7.966;2023-05-12T07:08:08;99830.84;;;13.39;100.00
70133;BME280;57495;49.922;7.966;2023-05-12T07:10:10;99828.84;;;13.49;100.00
70133;BME280;57495;49.922;7.966;2023-05-12T07:12:11;99834.41;;;13.72;100.00
70133;BME280;57495;49.922;7.966;2023-05-12T07:14:13;99837.59;;;13.84;100.00
70133;BME280;57495;49.922;7.966;2023-05-12T07:16:15;99830.53;;;13.91;100.00
70133;BME280;57495;49.922;7.966;2023-05-12T07:18:17;99817.06;;;14.07;100.00
70133;BME280;57495;49.922;7.966;2023-05-12T07:20:18;99830.19;;;14.02;100.00
70133;BME280;57495;49.922;7.966;2023-05-12T07:22:20;99825.81;;;14.09;100.00
70133;BME280;57495;49.922;7.966;2023-05-12T07:24:24;99824.63;;;14.20;100.00
70133;BME280;57495;49.922;7.966;2023-05-12T07:26:26;99826.97;;;14.23;100.00
70133;BME280;57495;49.922;7.966;2023-05-12T07:28:29;99827.59;;;14.34;100.00
70133;BME280;57495;49.922;7.966;2023-05-12T07:30:31;99826.28;;;14.21;100.00
70133;BME280;57495;49.922;7.966;2023-05-12T07:32:33;99828.50;;;14.18;100.00
70133;BME280;57495;49.922;7.966;2023-05-12T07:34:34;99826.63;;;14.10;100.00
70133;BME280;57495;49.922;7.966;2023-05-12T07:36:36;99829.16;;;14.11;100.00
70133;BME280;57495;49.922;7.966;2023-05-12T07:38:38;99843.28;;;14.05;100.00
70133;BME280;57495;49.922;7.966;2023-05-12T07:40:41;99833.22;;;13.99;100.00
70133;BME280;57495;49.922;7.966;2023-05-12T07:42:42;99834.22;;;13.82;100.00
70133;BME280;57495;49.922;7.966;2023-05-12T07:44:43;99832.91;;;13.78;100.00
70133;BME280;57495;49.922;7.966;2023-05-12T07:46:45;99838.25;;;13.86;100.00
70133;BME280;57495;49.922;7.966;2023-05-12T07:48:46;99844.00;;;13.83;100.00
70133;BME280;57495;49.922;7.966;2023-05-12T07:50:48;99832.88;;;13.69;100.00
70133;BME280;57495;49.922;7.966;2023-05-12T07:52:51;99843.66;;;13.78;100.00
70133;BME280;57495;49.922;7.966;2023-05-12T07:54:54;99837.94;;;13.89;100.00
70133;BME280;57495;49.922;7.966;2023-05-12T07:56:57;99838.44;;;13.76;100.00
70133;BME280;57495;49.922;7.966;2023-05-12T07:58:59;99843.31;;;13.72;100.00
70133;BME280;57495;49.922;7.966;2023-05-12T08:01:00;99851.88;;;13.68;100.00
70133;BME280;57495;49.922;7.966;2023-05-12T08:03:05;99849.34;;;13.75;100.00
70133;BME280;57495;49.922;7.966;2023-05-12T08:05:07;99847.69;;;13.90;100.00
70133;BME280;57495;49.922;7.966;2023-05-12T08:07:09;99852.72;;;13.85;100.00
70133;BME280;57495;49.922;7.966;2023-05-12T08:09:11;99849.69;;;13.88;100.00
70133;BME280;57495;49.922;7.966;2023-05-12T08:11:12;99842.13;;;13.83;100.00
70133;BME280;57495;49.922;7.966;2023-05-12T08:13:15;99847.00;;;13.71;100.00
70133;BME280;57495;49.922;7.966;2023-05-12T08:15:16;99853.53;;;13.69;100.00
70133;BME280;57495;49.922;7.966;2023-05-12T08:17:18;99854.88;;;13.65;100.00
70133;BME280;57495;49.922;7.966;2023-05-12T08:19:19;99858.44;;;13.73;100.00
70133;BME280;57495;49.922;7.966;2023-05-12T08:21:21;99851.53;;;13.87;100.00
70133;BME280;57495;49.922;7.966;2023-05-12T08:23:23;99859.78;;;13.94;100.00
70133;BME280;57495;49.922;7.966;2023-05-12T08:25:24;99852.72;;;13.93;100.00
70133;BME280;57495;49.922;7.966;2023-05-12T08:27:29;99852.53;;;14.03;100.00
70133;BME280;57495;49.922;7.966;2023-05-12T08:29:32;99855.03;;;14.21;100.00
70133;BME280;57495;49.922;7.966;2023-05-12T08:31:33;99847.13;;;14.19;100.00
70133;BME280;57495;49.922;7.966;2023-05-12T08:33:36;99847.97;;;14.28;100.00
70133;BME280;57495;49.922;7.966;2023-05-12T08:35:38;99865.13;;;14.19;100.00
70133;BME280;57495;49.922;7.966;2023-05-12T08:37:39;99858.75;;;14.20;100.00
70133;BME280;57495;49.922;7.966;2023-05-12T08:39:41;99858.38;;;14.23;100.00
70133;BME280;57495;49.922;7.966;2023-05-12T08:41:44;99866.09;;;14.42;100.00
70133;BME280;57495;49.922;7.966;2023-05-12T08:43:49;99861.34;;;14.53;100.00
70133;BME280;57495;49.922;7.966;2023-05-12T08:45:52;99875.16;;;14.66;100.00
70133;BME280;57495;49.922;7.966;2023-05-12T08:47:57;99866.34;;;14.80;100.00
70133;BME280;57495;49.922;7.966;2023-05-12T08:50:01;99869.56;;;14.76;100.00
70133;BME280;57495;49.922;7.966;2023-05-12T08:52:03;99875.81;;;14.68;100.00
70133;BME280;57495;49.922;7.966;2023-05-12T08:54:07;99870.28;;;14.53;100.00
70133;BME280;57495;49.922;7.966;2023-05-12T08:56:09;99870.13;;;14.46;100.00
70133;BME280;57495;49.922;7.966;2023-05-12T08:58:13;99874.88;;;14.28;100.00
70133;BME280;57495;49.922;7.966;2023-05-12T09:00:16;99874.88;;;14.28;100.00
70133;BME280;57495;49.922;7.966;2023-05-12T09:02:20;99870.81;;;14.40;100.00
70133;BME280;57495;49.922;7.966;2023-05-12T09:04:21;99869.78;;;14.41;100.00
70133;BME280;57495;49.922;7.966;2023-05-12T09:06:23;99874.53;;;14.31;100.00
70133;BME280;57495;49.922;7.966;2023-05-12T09:08:27;99867.66;;;14.20;100.00
70133;BME280;57495;49.922;7.966;2023-05-12T09:10:29;99868.84;;;14.18;100.00
70133;BME280;57495;49.922;7.966;2023-05-12T09:12:33;99880.09;;;14.13;100.00
70133;BME280;57495;49.922;7.966;2023-05-12T09:14:35;99882.94;;;14.11;100.00
70133;BME280;57495;49.922;7.966;2023-05-12T09:16:40;99878.88;;;14.32;100.00
70133;BME280;57495;49.922;7.966;2023-05-12T09:18:49;99874.38;;;14.33;100.00
70133;BME280;57495;49.922;7.966;2023-05-12T09:20:51;99878.75;;;14.25;100.00
70133;BME280;57495;49.922;7.966;2023-05-12T09:22:53;99875.03;;;14.26;100.00
70133;BME280;57495;49.922;7.966;2023-05-12T09:24:55;99873.19;;;14.19;100.00
70133;BME280;57495;49.922;7.966;2023-05-12T09:26:57;99873.38;;;14.09;100.00
70133;BME280;57495;49.922;7.966;2023-05-12T09:29:04;99874.53;;;14.31;100.00
70133;BME280;57495;49.922;7.966;2023-05-12T09:31:14;99880.41;;;14.35;100.00
70133;BME280;57495;49.922;7.966;2023-05-12T09:33:16;99873.16;;;14.35;100.00
70133;BME280;57495;49.922;7.966;2023-05-12T09:35:19;99867.25;;;14.40;100.00
70133;BME280;57495;49.922;7.966;2023-05-12T09:37:29;99867.25;;;14.48;100.00
70133;BME280;57495;49.922;7.966;2023-05-12T09:39:30;99872.97;;;14.61;100.00
70133;BME280;57495;49.922;7.966;2023-05-12T09:41:34;99875.94;;;14.75;100.00
70133;BME280;57495;49.922;7.966;2023-05-12T09:43:36;99865.84;;;14.77;100.00
70133;BME280;57495;49.922;7.966;2023-05-12T09:45:37;99872.59;;;14.81;100.00
70133;BME280;57495;49.922;7.966;2023-05-12T09:47:39;99871.66;;;14.97;100.00
70133;BME280;57495;49.922;7.966;2023-05-12T09:49:45;99868.72;;;15.15;100.00
70133;BME280;57495;49.922;7.966;2023-05-12T09:51:51;99865.78;;;15.33;100.00
70133;BME280;57495;49.922;7.966;2023-05-12T09:53:54;99869.38;;;15.48;100.00
70133;BME280;57495;49.922;7.966;2023-05-12T09:55:55;99865.91;;;15.62;100.00
70133;BME280;57495;49.922;7.966;2023-05-12T09:57:57;99862.56;;;15.60;98.39
70133;BME280;57495;49.922;7.966;2023-05-12T10:00:01;99864.34;;;15.91;99.70
70133;BME280;57495;49.922;7.966;2023-05-12T10:02:05;99864.16;;;16.16;99.85
70133;BME280;57495;49.922;7.966;2023-05-12T10:04:09;99864.81;;;16.18;98.62
70133;BME280;57495;49.922;7.966;2023-05-12T10:06:14;99865.97;;;16.38;94.84
70133;BME280;57495;49.922;7.966;2023-05-12T10:08:19;99856.28;;;16.59;93.23
70133;BME280;57495;49.922;7.966;2023-05-12T10:10:24;99853.13;;;16.70;94.75
70133;BME280;57495;49.922;7.966;2023-05-12T10:12:27;99857.59;;;16.63;92.92
70133;BME280;57495;49.922;7.966;2023-05-12T10:14:28;99857.03;;;16.53;94.35
70133;BME280;57495;49.922;7.966;2023-05-12T10:16:32;99857.38;;;16.20;91.32
70133;BME280;57495;49.922;7.966;2023-05-12T10:18:34;99847.53;;;15.89;92.92
70133;BME280;57495;49.922;7.966;2023-05-12T10:20:35;99846.88;;;15.87;92.68
70133;BME280;57495;49.922;7.966;2023-05-12T10:22:38;99853.69;;;15.98;94.22
70133;BME280;57495;49.922;7.966;2023-05-12T10:24:41;99850.72;;;16.08;94.73
70133;BME280;57495;49.922;7.966;2023-05-12T10:26:43;99846.56;;;16.20;94.92
70133;BME280;57495;49.922;7.966;2023-05-12T10:28:45;99849.00;;;16.45;95.48
70133;BME280;57495;49.922;7.966;2023-05-12T10:30:46;99851.72;;;16.45;92.36
70133;BME280;57495;49.922;7.966;2023-05-12T10:32:49;99852.38;;;16.47;95.08
70133;BME280;57495;49.922;7.966;2023-05-12T10:34:52;99845.66;;;16.42;92.97
70133;BME280;57495;49.922;7.966;2023-05-12T10:36:54;99851.03;;;16.13;91.14
70133;BME280;57495;49.922;7.966;2023-05-12T10:39:02;99852.47;;;16.00;91.37